Ypenburg, Netherlands
Current Conditions -  °F | °C
As of 11:25 AM on Tuesday 27 Jan 2015 (Local Time) from EHRD Reporting Station
Broken Clouds Broken Clouds  
Wind Chill: 39°   Ceiling: 2600
Heat Index: 45°   Visibility: 6mi
Dew Point: 39°   Wind: 10mph
Humidity: 81%   Direction: 290°WNW
Pressure: 30.24"   Gusts: NA
Location:  52.04°N, 4.37°E
Report Text: EHRD 271025Z AUTO 29009KT 260V320 9999 FEW015 SCT023 BKN02607/04 Q1024 NOSIG
Loading
Personal Weather Stations






























Interactive Weather Map New forecast layout! Learn more

10-Day Weather Forecast

Advertisements
Track Severe Weather on mobile